Time;durP1;ratioP1;P1;durP2;ratioP2;P2;SDS_P1;SDS_P2;PMS_P1;PMS_P2;Temp;Humidity;BMP_temperature;BMP_pressure;BME280_temperature;BME280_humidity;BME280_pressure;Samples;Min_cycle;Max_cycle;Signal;HPM_P1;HPM_P2
2023/10/08 00:02:13;;;;;;;1.20;0.70;;;15.70;1.00;;;;;;5094477;28;20483;-57
2023/10/08 00:04:44;;;;;;;1.50;0.70;;;15.70;1.00;;;;;;5094738;28;20476;-57
2023/10/08 00:07:11;;;;;;;1.05;0.50;;;15.90;1.00;;;;;;5096288;28;20829;-54
2023/10/08 00:09:38;;;;;;;1.25;0.50;;;16.00;1.00;;;;;;5094705;28;20820;-54
2023/10/08 00:12:08;;;;;;;0.90;0.50;;;16.10;1.00;;;;;;5095567;28;20487;-54
2023/10/08 00:14:43;;;;;;;3.17;0.60;;;16.10;1.00;;;;;;5095475;28;20433;-55
2023/10/08 00:17:12;;;;;;;1.83;0.60;;;16.20;1.00;;;;;;5094144;28;20425;-56
2023/10/08 00:19:39;;;;;;;1.50;0.60;;;16.20;1.00;;;;;;5092752;28;20409;-53
2023/10/08 00:22:07;;;;;;;2.13;0.63;;;16.20;1.00;;;;;;5093268;28;20857;-57
2023/10/08 00:24:34;;;;;;;2.67;0.60;;;16.20;1.00;;;;;;5093671;28;20495;-55
2023/10/08 00:27:03;;;;;;;1.27;0.70;;;16.20;1.00;;;;;;5093600;28;20768;-55
2023/10/08 00:29:32;;;;;;;1.98;0.60;;;16.20;1.00;;;;;;5092411;28;20429;-56
2023/10/08 00:32:02;;;;;;;2.47;0.60;;;16.20;1.00;;;;;;5093156;28;20869;-56
2023/10/08 00:34:29;;;;;;;1.00;0.50;;;16.20;1.00;;;;;;5093087;28;20528;-57
2023/10/08 00:36:57;;;;;;;1.65;0.50;;;16.30;1.00;;;;;;5093918;28;20422;-57
2023/10/08 00:39:26;;;;;;;1.65;0.60;;;16.30;1.00;;;;;;5093366;28;20444;-54
2023/10/08 00:41:58;;;;;;;1.40;0.60;;;16.40;1.00;;;;;;5092571;28;20417;-56
2023/10/08 00:44:29;;;;;;;1.88;0.70;;;16.40;1.00;;;;;;5091997;28;20420;-52
2023/10/08 00:47:00;;;;;;;1.33;0.60;;;16.30;1.00;;;;;;5093462;28;20420;-55
2023/10/08 00:49:47;;;;;;;1.20;0.60;;;16.30;1.00;;;;;;5093997;28;20433;-55
2023/10/08 00:55:09;;;;;;;1.00;0.50;;;16.20;1.00;;;;;;5087451;28;20863;-54
2023/10/08 00:57:37;;;;;;;1.42;0.50;;;16.20;1.00;;;;;;5094919;28;20529;-56
2023/10/08 01:00:15;;;;;;;2.13;0.60;;;16.30;1.00;;;;;;5094941;28;20453;-58
2023/10/08 01:02:49;;;;;;;1.58;0.60;;;16.40;1.00;;;;;;5094274;28;20433;-54
2023/10/08 01:05:19;;;;;;;1.00;0.60;;;16.40;1.00;;;;;;5095351;28;20418;-55
2023/10/08 01:07:51;;;;;;;1.10;0.60;;;16.40;1.00;;;;;;5094948;28;20495;-54
2023/10/08 01:10:20;;;;;;;1.67;0.50;;;16.40;1.00;;;;;;5094795;28;20437;-56
2023/10/08 01:13:03;;;;;;;2.10;0.50;;;16.50;1.00;;;;;;5094960;28;20425;-56
2023/10/08 01:15:35;;;;;;;1.13;0.50;;;16.50;1.00;;;;;;5095063;28;20429;-56
2023/10/08 01:18:06;;;;;;;0.90;0.50;;;16.50;1.00;;;;;;5093050;28;20479;-57
2023/10/08 01:20:37;;;;;;;1.20;0.60;;;16.50;1.00;;;;;;5091881;28;20698;-55
2023/10/08 01:23:13;;;;;;;2.10;0.50;;;16.50;1.00;;;;;;5091928;28;20424;-56
2023/10/08 01:25:40;;;;;;;2.30;0.60;;;16.40;1.00;;;;;;5091485;28;20502;-54
2023/10/08 01:28:15;;;;;;;1.48;0.50;;;16.40;1.00;;;;;;5092707;28;20748;-54
2023/10/08 01:30:46;;;;;;;2.20;0.60;;;16.40;1.00;;;;;;5093362;28;20776;-56
2023/10/08 01:33:15;;;;;;;1.00;0.50;;;16.30;1.00;;;;;;5094126;28;20833;-57
2023/10/08 01:35:42;;;;;;;1.40;0.60;;;16.20;1.00;;;;;;5094604;28;20615;-55
2023/10/08 01:38:13;;;;;;;1.40;0.60;;;16.20;1.00;;;;;;5094561;28;20422;-54
2023/10/08 01:40:41;;;;;;;1.42;0.40;;;16.20;1.00;;;;;;5094982;28;20825;-57
2023/10/08 01:43:09;;;;;;;2.50;0.60;;;16.20;1.00;;;;;;5094357;28;20733;-57
2023/10/08 01:45:43;;;;;;;1.33;0.55;;;16.20;1.00;;;;;;5094740;28;20910;-57
2023/10/08 01:48:10;;;;;;;1.10;0.60;;;16.20;1.00;;;;;;5094369;28;20430;-55
2023/10/08 01:50:38;;;;;;;1.90;0.60;;;16.20;1.00;;;;;;5094139;28;20456;-57
2023/10/08 01:53:10;;;;;;;2.50;0.60;;;16.20;1.00;;;;;;5094163;28;20726;-55
2023/10/08 01:55:48;;;;;;;1.65;0.60;;;16.20;1.00;;;;;;5091612;28;20421;-57
2023/10/08 01:58:17;;;;;;;2.20;0.50;;;16.20;1.00;;;;;;5091924;28;20433;-56
2023/10/08 02:00:46;;;;;;;1.53;0.60;;;16.10;1.00;;;;;;5092581;28;20736;-57
2023/10/08 02:03:15;;;;;;;1.80;0.60;;;16.00;1.00;;;;;;5093701;28;20849;-54
2023/10/08 02:05:43;;;;;;;2.30;0.60;;;16.00;1.00;;;;;;5093905;28;20425;-57
2023/10/08 02:08:11;;;;;;;2.30;0.70;;;16.00;1.00;;;;;;5093889;28;20425;-56
2023/10/08 02:10:41;;;;;;;2.47;0.80;;;16.00;1.00;;;;;;5096108;28;20430;-53
2023/10/08 02:13:09;;;;;;;4.40;1.20;;;15.90;1.00;;;;;;5098070;28;20429;-56
2023/10/08 02:15:38;;;;;;;2.83;1.10;;;15.80;1.00;;;;;;5097985;28;20526;-55
2023/10/08 02:18:06;;;;;;;4.78;1.60;;;15.70;1.00;;;;;;5098501;28;20513;-55
2023/10/08 02:20:33;;;;;;;6.72;2.13;;;15.70;1.00;;;;;;5097787;28;20516;-55
2023/10/08 02:23:01;;;;;;;4.80;1.52;;;15.70;1.00;;;;;;5097653;28;20417;-56
2023/10/08 02:25:28;;;;;;;3.95;1.38;;;15.70;1.00;;;;;;5096899;28;20738;-56
2023/10/08 02:27:57;;;;;;;4.30;1.17;;;15.60;1.00;;;;;;5098102;28;20449;-56
2023/10/08 02:30:24;;;;;;;1.70;0.70;;;15.50;1.00;;;;;;5097723;28;20434;-56
2023/10/08 02:32:52;;;;;;;1.60;0.60;;;15.40;1.00;;;;;;5096720;28;20737;-54
2023/10/08 02:35:19;;;;;;;2.25;0.70;;;15.40;1.00;;;;;;5095997;28;20414;-53
2023/10/08 02:37:46;;;;;;;1.30;0.60;;;15.40;1.00;;;;;;5096141;28;20414;-56
2023/10/08 02:40:25;;;;;;;1.17;0.60;;;15.30;1.00;;;;;;5097393;28;20414;-57
2023/10/08 02:42:57;;;;;;;1.08;0.50;;;15.20;1.00;;;;;;5097122;28;20433;-54
2023/10/08 02:45:26;;;;;;;1.20;0.60;;;15.20;1.00;;;;;;5097501;28;20429;-57
2023/10/08 02:47:54;;;;;;;1.20;0.57;;;15.10;1.00;;;;;;5097486;28;20417;-57
2023/10/08 02:50:22;;;;;;;1.40;0.50;;;15.10;1.00;;;;;;5097467;28;20433;-56
2023/10/08 02:52:49;;;;;;;2.10;0.60;;;15.00;1.00;;;;;;5097653;28;20414;-56
2023/10/08 02:55:28;;;;;;;1.10;0.60;;;15.00;1.00;;;;;;5096858;28;20724;-57
2023/10/08 02:57:56;;;;;;;1.48;0.60;;;15.00;1.00;;;;;;5097973;28;20721;-57
2023/10/08 03:00:29;;;;;;;1.60;0.55;;;14.90;1.00;;;;;;5097453;28;20422;-57
2023/10/08 03:02:58;;;;;;;1.50;0.60;;;14.90;1.00;;;;;;5096676;28;20456;-57
2023/10/08 03:05:29;;;;;;;0.88;0.50;;;14.90;1.00;;;;;;5096525;28;20418;-53
2023/10/08 03:07:57;;;;;;;1.40;0.50;;;14.80;1.00;;;;;;5097342;28;20502;-55
2023/10/08 03:10:32;;;;;;;1.50;0.50;;;14.80;1.00;;;;;;5097374;28;20859;-57
2023/10/08 03:13:04;;;;;;;1.10;0.50;;;14.80;1.00;;;;;;5097508;28;20576;-57
2023/10/08 03:15:38;;;;;;;1.50;0.50;;;14.80;1.00;;;;;;5097458;28;20440;-55
2023/10/08 03:18:10;;;;;;;1.47;0.60;;;14.70;1.00;;;;;;5097177;28;20516;-54
2023/10/08 03:20:42;;;;;;;0.93;0.50;;;14.70;1.00;;;;;;5096139;28;20418;-57
2023/10/08 03:23:22;;;;;;;1.00;0.57;;;14.70;1.00;;;;;;5096433;28;20648;-54
2023/10/08 03:25:56;;;;;;;1.48;0.50;;;14.60;1.00;;;;;;5095661;28;20492;-55
2023/10/08 03:28:25;;;;;;;2.85;0.60;;;14.60;1.00;;;;;;5096912;28;20891;-55
2023/10/08 03:31:02;;;;;;;1.08;0.60;;;14.60;1.00;;;;;;5096973;28;20494;-56
2023/10/08 03:33:34;;;;;;;2.00;0.55;;;14.70;1.00;;;;;;5097102;28;20504;-56
2023/10/08 03:36:08;;;;;;;1.30;0.55;;;14.70;1.00;;;;;;5096201;28;21032;-56
2023/10/08 03:38:49;;;;;;;1.35;0.60;;;14.80;1.00;;;;;;5096694;28;20465;-53
2023/10/08 03:41:18;;;;;;;2.00;0.60;;;14.70;1.00;;;;;;5095932;28;20425;-53
2023/10/08 03:43:52;;;;;;;1.70;0.70;;;14.70;1.00;;;;;;5096503;28;20487;-56
2023/10/08 03:46:21;;;;;;;1.45;0.68;;;14.70;1.00;;;;;;5096455;28;20709;-56
2023/10/08 03:48:51;;;;;;;1.73;0.53;;;14.70;1.00;;;;;;5096271;28;20483;-54
2023/10/08 03:51:20;;;;;;;1.40;0.50;;;14.60;1.00;;;;;;5095974;28;20855;-56
2023/10/08 03:53:58;;;;;;;2.40;0.60;;;14.60;1.00;;;;;;5096501;28;20443;-54
2023/10/08 03:56:29;;;;;;;1.25;0.68;;;14.60;1.00;;;;;;5096158;28;20452;-56
2023/10/08 03:59:00;;;;;;;2.10;0.60;;;14.40;1.00;;;;;;5095887;28;20425;-56
2023/10/08 04:01:31;;;;;;;1.77;0.50;;;14.40;1.00;;;;;;5095618;28;20429;-55
2023/10/08 04:04:00;;;;;;;2.50;0.60;;;14.40;1.00;;;;;;5096260;28;20449;-56
2023/10/08 04:06:37;;;;;;;1.50;0.60;;;14.40;1.00;;;;;;5094857;28;20422;-55
2023/10/08 04:09:23;;;;;;;1.05;0.60;;;14.40;1.00;;;;;;5094585;28;20430;-54
2023/10/08 04:11:55;;;;;;;1.10;0.50;;;14.40;1.00;;;;;;5095437;28;20421;-56
2023/10/08 04:14:24;;;;;;;1.60;0.50;;;14.40;1.00;;;;;;5095215;28;20801;-53
2023/10/08 04:16:52;;;;;;;1.13;0.50;;;14.30;1.00;;;;;;5094159;28;20433;-57
2023/10/08 04:19:26;;;;;;;2.35;0.60;;;14.30;1.00;;;;;;5094650;28;20860;-56
2023/10/08 04:21:54;;;;;;;1.17;0.50;;;14.20;1.00;;;;;;5094346;28;20436;-54
2023/10/08 04:24:28;;;;;;;1.40;0.50;;;14.30;1.00;;;;;;5096111;28;20490;-57
2023/10/08 04:27:01;;;;;;;1.30;0.60;;;14.30;1.00;;;;;;5095635;28;20422;-56
2023/10/08 04:29:32;;;;;;;1.30;0.60;;;14.30;1.00;;;;;;5094982;28;20725;-52
2023/10/08 04:32:07;;;;;;;1.80;0.50;;;14.20;1.00;;;;;;5094001;28;20833;-53
2023/10/08 04:34:36;;;;;;;1.98;0.70;;;14.20;1.00;;;;;;5093868;28;20431;-55
2023/10/08 04:37:10;;;;;;;1.10;0.50;;;14.20;1.00;;;;;;5094314;28;20768;-57
2023/10/08 04:39:40;;;;;;;1.30;0.50;;;14.30;1.00;;;;;;5094551;28;20494;-57
2023/10/08 04:42:10;;;;;;;2.03;0.60;;;14.30;1.00;;;;;;5094635;28;20426;-56
2023/10/08 04:44:39;;;;;;;1.30;0.40;;;14.30;1.00;;;;;;5094126;28;20422;-56
2023/10/08 04:47:08;;;;;;;1.63;0.57;;;14.30;1.00;;;;;;5095480;28;20730;-52
2023/10/08 04:49:45;;;;;;;2.42;0.70;;;14.40;1.00;;;;;;5095369;28;20438;-54
2023/10/08 04:52:14;;;;;;;1.13;0.40;;;14.40;1.00;;;;;;5095561;28;20548;-56
2023/10/08 04:54:51;;;;;;;1.80;0.60;;;14.40;1.00;;;;;;5095542;28;20421;-55
2023/10/08 04:57:22;;;;;;;2.80;0.60;;;14.40;1.00;;;;;;5095179;28;20717;-55
2023/10/08 04:59:50;;;;;;;0.90;0.52;;;14.40;1.00;;;;;;5095145;28;20514;-55
2023/10/08 05:02:22;;;;;;;0.95;0.43;;;14.60;1.00;;;;;;5094743;28;20902;-55
2023/10/08 05:05:21;;;;;;;1.73;0.60;;;14.70;1.00;;;;;;5094076;28;20440;-53
2023/10/08 05:08:11;;;;;;;3.38;0.60;;;14.80;1.00;;;;;;5095148;28;20904;-52
2023/10/08 05:13:55;;;;;;;1.20;0.60;;;14.60;1.00;;;;;;5132328;27;20354;-55
2023/10/08 05:16:36;;;;;;;1.30;0.60;;;14.60;1.00;;;;;;5131875;27;20476;-54
2023/10/08 05:22:01;;;;;;;1.40;0.50;;;14.60;1.00;;;;;;5122396;27;20499;-54
2023/10/08 05:24:37;;;;;;;1.10;0.50;;;14.50;1.00;;;;;;5133356;27;20427;-54
2023/10/08 05:27:37;;;;;;;1.20;0.50;;;14.50;1.00;;;;;;5133119;27;20430;-54
2023/10/08 05:30:15;;;;;;;1.20;0.50;;;14.50;1.00;;;;;;5133177;27;20490;-55
2023/10/08 05:33:05;;;;;;;1.50;0.60;;;14.50;1.00;;;;;;5133079;27;20427;-54
2023/10/08 05:35:48;;;;;;;2.10;0.50;;;14.50;1.00;;;;;;5130220;27;20446;-53
2023/10/08 05:38:22;;;;;;;1.52;0.50;;;14.50;1.00;;;;;;5131541;27;20423;-52
2023/10/08 05:41:05;;;;;;;3.57;0.60;;;14.50;1.00;;;;;;5133143;27;20472;-53
2023/10/08 05:49:03;;;;;;;0.95;0.50;;;14.40;1.00;;;;;;5132279;27;20415;-52
2023/10/08 05:51:44;;;;;;;2.95;0.60;;;14.40;1.00;;;;;;5131655;27;20442;-55
2023/10/08 05:54:24;;;;;;;1.00;0.60;;;14.30;1.00;;;;;;5132886;27;20454;-53
2023/10/08 05:57:05;;;;;;;2.20;0.60;;;14.40;1.00;;;;;;5130764;27;20503;-55
2023/10/08 05:59:38;;;;;;;1.40;0.50;;;14.40;1.00;;;;;;5131547;27;20432;-54
2023/10/08 06:02:25;;;;;;;1.35;0.60;;;14.40;1.00;;;;;;5131064;27;20427;-54
2023/10/08 06:05:09;;;;;;;2.10;0.70;;;14.50;1.00;;;;;;5131020;27;20438;-55
2023/10/08 06:07:48;;;;;;;2.00;0.60;;;14.50;1.00;;;;;;5127831;27;20750;-54
2023/10/08 06:10:41;;;;;;;1.02;0.50;;;14.60;1.00;;;;;;5129543;27;20434;-54
2023/10/08 06:13:13;;;;;;;1.20;0.50;;;14.60;1.00;;;;;;5130505;27;20492;-53
2023/10/08 06:15:47;;;;;;;3.47;0.60;;;14.50;1.00;;;;;;5130797;27;20455;-53
2023/10/08 06:18:18;;;;;;;2.03;0.60;;;14.60;1.00;;;;;;5125021;27;20427;-55
2023/10/08 06:20:44;;;;;;;1.50;0.60;;;14.60;1.00;;;;;;5130329;27;20437;-53
2023/10/08 06:23:13;;;;;;;2.30;0.50;;;14.60;1.00;;;;;;5127987;27;20481;-53
2023/10/08 06:25:45;;;;;;;1.53;0.50;;;14.70;1.00;;;;;;5116211;27;20438;-53
2023/10/08 06:28:19;;;;;;;2.08;0.55;;;14.70;1.00;;;;;;5116044;28;20420;-54
2023/10/08 06:30:46;;;;;;;1.13;0.50;;;14.70;1.00;;;;;;5118151;28;20420;-57
2023/10/08 06:33:13;;;;;;;1.80;0.50;;;14.70;1.00;;;;;;5116554;28;20479;-54
2023/10/08 06:35:44;;;;;;;1.23;0.50;;;14.70;1.00;;;;;;5114044;28;20454;-53
2023/10/08 06:38:14;;;;;;;1.38;0.50;;;14.80;1.00;;;;;;5116266;28;20432;-53
2023/10/08 06:40:43;;;;;;;1.43;0.40;;;14.80;1.00;;;;;;5116866;27;20416;-55
2023/10/08 06:43:16;;;;;;;1.10;0.50;;;14.90;1.00;;;;;;5114511;28;20424;-54
2023/10/08 06:45:46;;;;;;;2.10;0.50;;;14.90;1.00;;;;;;5117090;28;20431;-54
2023/10/08 06:48:20;;;;;;;1.30;0.50;;;15.00;1.00;;;;;;5116733;28;20424;-56
2023/10/08 06:50:49;;;;;;;0.80;0.50;;;15.00;1.00;;;;;;5116442;28;20445;-54
2023/10/08 06:53:17;;;;;;;2.40;0.60;;;15.00;1.00;;;;;;5116692;28;20731;-55
2023/10/08 06:55:47;;;;;;;1.90;0.40;;;15.00;1.00;;;;;;5115714;28;20423;-55
2023/10/08 06:58:16;;;;;;;1.48;0.50;;;15.10;1.00;;;;;;5117316;28;20424;-54
2023/10/08 07:00:48;;;;;;;2.35;0.60;;;15.10;1.00;;;;;;5117014;28;20850;-54
2023/10/08 07:03:17;;;;;;;1.27;0.60;;;15.10;1.00;;;;;;5115465;28;20455;-54
2023/10/08 07:05:53;;;;;;;1.60;0.50;;;15.20;1.00;;;;;;5116367;28;20459;-56
2023/10/08 07:08:24;;;;;;;1.60;0.50;;;15.20;1.00;;;;;;5115674;28;20429;-55
2023/10/08 07:10:51;;;;;;;1.80;0.57;;;15.40;1.00;;;;;;5115138;28;20419;-55
2023/10/08 07:13:19;;;;;;;2.30;0.60;;;15.50;1.00;;;;;;5115189;28;20752;-56
2023/10/08 07:15:46;;;;;;;2.30;0.50;;;15.60;1.00;;;;;;5115658;28;20851;-55
2023/10/08 07:18:19;;;;;;;1.20;0.50;;;15.70;1.00;;;;;;5115560;28;20727;-55
2023/10/08 07:20:53;;;;;;;1.80;0.50;;;15.90;1.00;;;;;;5115379;28;20453;-56
2023/10/08 07:23:26;;;;;;;1.20;0.50;;;16.00;1.00;;;;;;5116165;28;20427;-55
2023/10/08 07:25:57;;;;;;;1.10;0.60;;;16.20;1.00;;;;;;5115864;28;20421;-56
2023/10/08 07:28:26;;;;;;;1.50;0.50;;;16.40;1.00;;;;;;5115623;28;20427;-55
2023/10/08 07:30:54;;;;;;;1.35;0.50;;;16.60;1.00;;;;;;5114775;28;20424;-53
2023/10/08 07:33:24;;;;;;;1.58;0.50;;;16.80;1.00;;;;;;5113880;28;20424;-55
2023/10/08 07:35:56;;;;;;;1.73;0.50;;;17.00;1.00;;;;;;5112601;28;20453;-56
2023/10/08 07:38:28;;;;;;;1.10;0.50;;;17.10;1.00;;;;;;5114846;28;20534;-53
2023/10/08 07:40:57;;;;;;;2.50;0.50;;;17.20;1.00;;;;;;5113694;28;20416;-55
2023/10/08 07:43:24;;;;;;;1.92;0.60;;;17.30;1.00;;;;;;5111055;28;20436;-56
2023/10/08 07:45:53;;;;;;;2.37;0.63;;;17.40;1.00;;;;;;5114930;28;20481;-54
2023/10/08 07:48:22;;;;;;;1.67;0.60;;;17.50;1.00;;;;;;5115081;28;20519;-55
2023/10/08 07:50:50;;;;;;;1.13;0.50;;;17.60;1.00;;;;;;5115475;28;20424;-56
2023/10/08 07:53:20;;;;;;;2.70;0.60;;;17.70;1.00;;;;;;5112135;28;20424;-54
2023/10/08 07:55:49;;;;;;;1.20;0.50;;;17.70;1.00;;;;;;5112408;28;21026;-53
2023/10/08 07:58:17;;;;;;;1.10;0.40;;;17.80;1.00;;;;;;5113968;28;20424;-54
2023/10/08 08:00:51;;;;;;;1.43;0.50;;;18.00;1.00;;;;;;5115270;28;20416;-55
2023/10/08 08:03:21;;;;;;;2.70;0.50;;;18.10;1.00;;;;;;5115473;28;20819;-58
2023/10/08 08:05:52;;;;;;;1.50;0.50;;;18.20;1.00;;;;;;5115074;28;20420;-56
2023/10/08 08:08:22;;;;;;;1.17;0.60;;;18.20;1.00;;;;;;5112837;28;20427;-55
2023/10/08 08:10:57;;;;;;;0.77;0.40;;;18.10;1.00;;;;;;5112674;28;20809;-56
2023/10/08 08:13:27;;;;;;;1.13;0.50;;;18.20;1.00;;;;;;5111526;28;20826;-57
2023/10/08 08:15:58;;;;;;;2.20;0.60;;;18.20;1.00;;;;;;5114232;28;20515;-55
2023/10/08 08:18:32;;;;;;;2.10;0.50;;;18.10;1.00;;;;;;5115108;28;20424;-56
2023/10/08 08:21:02;;;;;;;1.10;0.50;;;18.10;1.00;;;;;;5115150;28;20831;-56
2023/10/08 08:23:32;;;;;;;2.42;0.50;;;18.10;1.00;;;;;;5114413;28;20432;-56
2023/10/08 08:26:11;;;;;;;1.40;0.60;;;18.10;1.00;;;;;;5114239;28;20705;-57
2023/10/08 08:28:39;;;;;;;1.20;0.50;;;18.10;1.00;;;;;;5115368;28;20420;-56
2023/10/08 08:31:13;;;;;;;1.90;0.60;;;18.20;1.00;;;;;;5115252;28;20617;-54
2023/10/08 08:33:59;;;;;;;1.27;0.50;;;18.20;1.00;;;;;;5115950;28;20442;-56
2023/10/08 08:36:28;;;;;;;2.28;0.70;;;18.20;1.00;;;;;;5115706;28;20424;-56
2023/10/08 08:38:56;;;;;;;2.00;0.70;;;18.10;1.00;;;;;;5114261;28;20818;-56
2023/10/08 08:41:25;;;;;;;1.52;0.60;;;18.20;1.00;;;;;;5114650;28;20416;-57
2023/10/08 08:43:58;;;;;;;1.33;0.60;;;18.20;1.00;;;;;;5115504;28;20412;-56
2023/10/08 08:46:34;;;;;;;1.90;0.70;;;18.10;1.00;;;;;;5114624;28;20430;-56
2023/10/08 08:49:04;;;;;;;1.50;0.70;;;18.20;1.00;;;;;;5113842;28;20431;-56
2023/10/08 08:51:32;;;;;;;2.33;0.70;;;18.30;1.00;;;;;;5114146;28;20428;-55
2023/10/08 08:54:00;;;;;;;1.65;0.60;;;18.40;1.00;;;;;;5114923;28;20439;-56
2023/10/08 08:56:31;;;;;;;2.30;0.70;;;18.40;1.00;;;;;;5112409;28;20404;-54
2023/10/08 08:59:00;;;;;;;1.33;0.60;;;18.40;1.00;;;;;;5114115;28;20419;-57
2023/10/08 09:01:28;;;;;;;2.30;0.60;;;18.50;1.00;;;;;;5114401;28;20420;-56
2023/10/08 09:04:01;;;;;;;1.75;0.80;;;18.60;1.00;;;;;;5114918;28;20487;-56
2023/10/08 09:06:29;;;;;;;2.05;0.60;;;18.70;1.00;;;;;;5114752;28;20522;-57
2023/10/08 09:09:13;;;;;;;1.98;0.50;;;18.70;1.00;;;;;;5114247;28;20427;-56
2023/10/08 09:11:42;;;;;;;1.60;0.70;;;18.80;1.00;;;;;;5114470;28;20774;-57
2023/10/08 09:14:11;;;;;;;2.20;0.70;;;19.00;1.00;;;;;;5114999;28;20428;-56
2023/10/08 09:16:39;;;;;;;2.30;0.70;;;19.10;1.00;;;;;;5113704;28;20423;-56
2023/10/08 09:19:11;;;;;;;3.25;0.80;;;19.30;1.00;;;;;;5114489;28;20427;-57
2023/10/08 09:21:38;;;;;;;1.30;0.50;;;19.50;1.00;;;;;;5113378;28;20430;-57
2023/10/08 09:24:10;;;;;;;0.90;0.50;;;19.70;1.00;;;;;;5113559;28;20424;-57
2023/10/08 09:26:39;;;;;;;4.20;0.50;;;19.90;1.00;;;;;;5114780;28;20431;-57
2023/10/08 09:29:11;;;;;;;1.20;0.50;;;20.10;1.00;;;;;;5114445;28;20477;-57
2023/10/08 09:31:38;;;;;;;1.20;0.50;;;20.30;1.00;;;;;;5108472;28;20442;-57
2023/10/08 09:34:06;;;;;;;1.30;0.50;;;20.30;1.00;;;;;;5102705;28;20436;-56
2023/10/08 09:36:34;;;;;;;1.50;0.57;;;20.40;1.00;;;;;;5107526;28;20440;-56
2023/10/08 09:39:06;;;;;;;1.48;0.60;;;20.50;1.00;;;;;;5114375;28;20450;-56
2023/10/08 09:41:34;;;;;;;1.80;0.50;;;20.60;1.00;;;;;;5112328;28;20511;-56
2023/10/08 09:44:04;;;;;;;1.30;0.60;;;20.70;1.00;;;;;;5112207;28;20451;-55
2023/10/08 09:46:35;;;;;;;1.50;0.50;;;20.80;1.00;;;;;;5112547;28;20435;-57
2023/10/08 09:49:06;;;;;;;1.75;0.50;;;20.90;1.00;;;;;;5112704;28;20911;-54
2023/10/08 09:51:38;;;;;;;1.50;0.57;;;21.00;1.00;;;;;;5113259;28;20492;-56
2023/10/08 09:54:13;;;;;;;2.40;0.50;;;21.10;1.00;;;;;;5111634;28;20873;-55
2023/10/08 09:56:43;;;;;;;1.48;0.63;;;21.30;1.00;;;;;;5112561;28;20774;-56
2023/10/08 09:59:14;;;;;;;2.00;0.70;;;21.50;1.00;;;;;;5112900;28;20621;-56
2023/10/08 10:01:44;;;;;;;3.13;0.80;;;21.60;1.00;;;;;;5115136;28;20724;-56
2023/10/08 10:04:13;;;;;;;1.15;0.50;;;21.80;1.00;;;;;;5115856;28;20488;-56
2023/10/08 10:06:43;;;;;;;1.30;0.50;;;21.80;1.00;;;;;;5114656;28;20481;-55
2023/10/08 10:09:15;;;;;;;1.73;0.60;;;21.80;1.00;;;;;;5116116;28;20556;-54
2023/10/08 10:11:49;;;;;;;4.10;0.60;;;21.90;1.00;;;;;;5116969;28;20623;-56
2023/10/08 10:14:17;;;;;;;1.20;0.50;;;22.00;1.00;;;;;;5116246;28;20792;-56
2023/10/08 10:16:49;;;;;;;2.47;0.50;;;22.20;1.00;;;;;;5116118;28;20769;-57
2023/10/08 10:19:23;;;;;;;1.20;0.45;;;22.20;1.00;;;;;;5115126;28;20706;-58
2023/10/08 10:21:50;;;;;;;1.10;0.50;;;22.30;1.00;;;;;;5114475;28;20463;-57
2023/10/08 10:24:29;;;;;;;1.50;0.50;;;22.40;1.00;;;;;;5114339;28;20412;-55
2023/10/08 10:27:11;;;;;;;2.20;0.60;;;22.40;1.00;;;;;;5114534;28;20427;-56
2023/10/08 10:29:39;;;;;;;1.73;0.55;;;22.30;1.00;;;;;;5116351;28;20785;-57
2023/10/08 10:32:09;;;;;;;1.50;0.50;;;22.20;1.00;;;;;;5115601;28;20489;-58
2023/10/08 10:34:40;;;;;;;2.50;0.60;;;22.20;1.00;;;;;;5116537;28;20930;-56
2023/10/08 10:37:18;;;;;;;1.30;0.60;;;22.20;1.00;;;;;;5115849;28;20420;-56
2023/10/08 10:39:53;;;;;;;3.35;0.60;;;22.00;1.00;;;;;;5115659;28;20424;-54
2023/10/08 10:42:22;;;;;;;1.60;0.50;;;21.90;1.00;;;;;;5116202;28;20424;-57
2023/10/08 10:44:53;;;;;;;2.80;0.60;;;21.90;1.00;;;;;;5115960;28;20412;-57
2023/10/08 10:47:26;;;;;;;1.40;0.50;;;22.00;1.00;;;;;;5115849;28;20428;-55
2023/10/08 10:50:05;;;;;;;1.60;0.60;;;22.20;1.00;;;;;;5115700;28;20435;-56
2023/10/08 10:52:44;;;;;;;1.20;0.50;;;22.30;1.00;;;;;;5115440;28;20427;-55
2023/10/08 10:55:21;;;;;;;2.50;0.60;;;22.20;1.00;;;;;;5115432;27;20475;-56
2023/10/08 10:57:55;;;;;;;2.10;0.60;;;22.20;1.00;;;;;;5115992;28;20432;-56
2023/10/08 11:03:17;;;;;;;1.80;0.70;;;22.50;1.00;;;;;;5115901;28;20472;-56
2023/10/08 11:05:51;;;;;;;1.47;0.80;;;22.60;1.00;;;;;;5116730;28;20535;-56
2023/10/08 11:08:19;;;;;;;1.42;0.65;;;22.30;1.00;;;;;;5117412;28;20468;-57
2023/10/08 11:10:51;;;;;;;1.98;0.60;;;22.20;1.00;;;;;;5114867;28;20431;-55
2023/10/08 11:13:19;;;;;;;1.87;0.60;;;22.30;1.00;;;;;;5114924;27;20440;-56
2023/10/08 11:15:51;;;;;;;1.20;0.60;;;22.30;1.00;;;;;;5116272;28;20858;-56
2023/10/08 11:18:21;;;;;;;1.33;0.60;;;22.30;1.00;;;;;;5116277;28;20424;-57
2023/10/08 11:20:54;;;;;;;1.88;0.70;;;22.30;1.00;;;;;;5114975;28;20419;-57
2023/10/08 11:23:35;;;;;;;1.50;0.60;;;22.30;1.00;;;;;;5113506;28;20794;-58
2023/10/08 11:26:05;;;;;;;1.20;0.60;;;22.10;1.00;;;;;;5115884;28;20862;-58
2023/10/08 11:28:34;;;;;;;2.08;0.68;;;22.00;1.00;;;;;;5113546;28;20507;-56
2023/10/08 11:31:07;;;;;;;1.67;0.77;;;22.20;1.00;;;;;;5113439;28;20859;-58
2023/10/08 11:33:38;;;;;;;1.10;0.60;;;22.20;1.00;;;;;;5111712;28;20472;-56
2023/10/08 11:36:18;;;;;;;1.70;0.70;;;22.30;1.00;;;;;;5112422;28;20727;-57
2023/10/08 11:38:47;;;;;;;1.20;0.60;;;22.30;1.00;;;;;;5114787;28;20427;-57
2023/10/08 11:41:22;;;;;;;1.70;0.60;;;22.50;1.00;;;;;;5113654;28;20420;-57
2023/10/08 11:43:53;;;;;;;2.00;0.70;;;22.60;1.00;;;;;;5111180;28;20432;-58
2023/10/08 11:46:25;;;;;;;1.38;0.60;;;22.90;1.00;;;;;;5112208;28;20423;-57
2023/10/08 11:48:57;;;;;;;1.73;0.80;;;23.20;1.00;;;;;;5113634;28;20435;-58
2023/10/08 11:51:25;;;;;;;1.30;0.70;;;23.40;1.00;;;;;;5115202;28;20426;-57
2023/10/08 11:53:53;;;;;;;1.75;0.50;;;23.40;1.00;;;;;;5115165;28;20436;-57
2023/10/08 11:56:23;;;;;;;1.87;0.50;;;23.40;1.00;;;;;;5115887;28;20518;-59
2023/10/08 11:58:51;;;;;;;2.00;0.60;;;23.50;1.00;;;;;;5114514;28;20432;-58
2023/10/08 12:01:18;;;;;;;1.17;0.60;;;23.50;1.00;;;;;;5114811;28;20485;-58
2023/10/08 12:03:46;;;;;;;1.20;0.50;;;23.60;1.00;;;;;;5114777;28;20420;-58
2023/10/08 12:06:18;;;;;;;1.33;0.50;;;23.60;1.00;;;;;;5114103;28;20431;-58
2023/10/08 12:08:46;;;;;;;2.60;0.50;;;23.70;1.00;;;;;;5114745;28;20416;-58
2023/10/08 12:11:14;;;;;;;1.80;0.60;;;23.90;1.00;;;;;;5116012;27;20730;-58
2023/10/08 12:13:44;;;;;;;2.58;0.57;;;24.10;1.00;;;;;;5114648;28;20439;-59
2023/10/08 12:16:20;;;;;;;1.27;0.60;;;24.20;1.00;;;;;;5115345;28;20428;-58
2023/10/08 12:18:53;;;;;;;1.45;0.70;;;24.40;1.00;;;;;;5114055;28;20459;-58
2023/10/08 12:21:21;;;;;;;1.35;0.60;;;24.40;1.00;;;;;;5113041;28;20460;-58
2023/10/08 12:23:49;;;;;;;1.50;0.60;;;24.50;1.00;;;;;;5113799;28;20412;-59
2023/10/08 12:26:18;;;;;;;1.00;0.50;;;24.40;1.00;;;;;;5115965;28;20430;-58
2023/10/08 12:28:48;;;;;;;1.70;0.63;;;24.40;1.00;;;;;;5113629;28;20439;-58
2023/10/08 12:31:16;;;;;;;1.00;0.60;;;24.50;1.00;;;;;;5114466;28;20704;-58
2023/10/08 12:33:44;;;;;;;2.10;0.52;;;24.50;1.00;;;;;;5114977;28;20762;-58
2023/10/08 12:36:12;;;;;;;1.10;0.65;;;24.60;1.00;;;;;;5114604;28;20475;-58
2023/10/08 12:38:44;;;;;;;1.70;0.50;;;24.60;1.00;;;;;;5113011;28;20499;-58
2023/10/08 12:41:16;;;;;;;1.85;0.60;;;24.60;1.00;;;;;;5114379;28;20420;-59
2023/10/08 12:43:46;;;;;;;1.40;0.60;;;24.60;1.00;;;;;;5114591;28;20426;-59
2023/10/08 12:46:18;;;;;;;2.80;0.60;;;24.70;1.00;;;;;;5114328;28;20460;-59
2023/10/08 12:48:47;;;;;;;2.90;0.70;;;24.70;1.00;;;;;;5114972;28;20853;-60
2023/10/08 12:51:16;;;;;;;2.28;0.60;;;24.70;1.00;;;;;;5113732;28;20693;-59
2023/10/08 12:53:50;;;;;;;2.70;0.60;;;24.80;1.00;;;;;;5113143;28;20589;-58
2023/10/08 12:56:21;;;;;;;2.03;0.70;;;24.80;1.00;;;;;;5114398;28;20455;-58
2023/10/08 12:58:49;;;;;;;3.30;0.60;;;24.80;1.00;;;;;;5114363;28;20474;-58
2023/10/08 13:01:18;;;;;;;1.52;0.50;;;24.90;1.00;;;;;;5113334;28;20428;-58
2023/10/08 13:03:48;;;;;;;3.42;0.80;;;25.00;1.00;;;;;;5113812;28;20764;-58
2023/10/08 13:06:21;;;;;;;2.10;0.70;;;25.00;1.00;;;;;;5113070;28;20424;-57
2023/10/08 13:08:52;;;;;;;3.90;0.70;;;24.90;1.00;;;;;;5112306;28;20421;-58
2023/10/08 13:11:22;;;;;;;3.50;0.80;;;24.90;1.00;;;;;;5112708;28;20455;-58
2023/10/08 13:13:50;;;;;;;2.95;0.63;;;24.90;1.00;;;;;;5112761;28;20485;-58
2023/10/08 13:16:18;;;;;;;4.35;0.60;;;24.90;1.00;;;;;;5111579;28;20614;-58
2023/10/08 13:18:45;;;;;;;1.40;0.70;;;24.90;1.00;;;;;;5113197;28;20855;-58
2023/10/08 13:21:12;;;;;;;2.63;0.60;;;24.90;1.00;;;;;;5113945;28;20431;-58
2023/10/08 13:23:39;;;;;;;1.75;0.60;;;24.90;1.00;;;;;;5113895;28;20488;-57
2023/10/08 13:26:08;;;;;;;2.80;0.60;;;25.00;1.00;;;;;;5112481;28;20442;-58
2023/10/08 13:28:36;;;;;;;3.40;0.60;;;25.00;1.00;;;;;;5111115;28;20435;-58
2023/10/08 13:31:09;;;;;;;3.40;0.60;;;25.10;1.00;;;;;;5112528;28;20420;-58
2023/10/08 13:33:39;;;;;;;2.90;0.60;;;25.20;1.00;;;;;;5114334;28;20428;-57
2023/10/08 13:36:09;;;;;;;1.70;0.50;;;25.20;1.00;;;;;;5117663;28;20415;-57
2023/10/08 13:38:36;;;;;;;1.50;0.60;;;25.10;1.00;;;;;;5118532;28;20412;-58